sensor_id;sensor_type;location;lat;lon;timestamp;pressure;altitude;pressure_sealevel;temperature;humidity
42105;BME280;70664;51.472;5.712;2023-07-22T00:01:26;101228.31;;;21.69;49.14
42105;BME280;70664;51.472;5.712;2023-07-22T00:03:52;101230.13;;;21.67;49.37
42105;BME280;70664;51.472;5.712;2023-07-22T00:06:18;101230.97;;;21.68;49.53
42105;BME280;70664;51.472;5.712;2023-07-22T00:08:44;101222.28;;;21.67;49.28
42105;BME280;70664;51.472;5.712;2023-07-22T00:11:09;101217.09;;;21.66;49.55
42105;BME280;70664;51.472;5.712;2023-07-22T00:13:35;101222.34;;;21.66;49.75
42105;BME280;70664;51.472;5.712;2023-07-22T00:16:02;101228.44;;;21.66;49.36
42105;BME280;70664;51.472;5.712;2023-07-22T00:18:31;101222.41;;;21.64;49.63
42105;BME280;70664;51.472;5.712;2023-07-22T00:20:57;101224.16;;;21.64;49.37
42105;BME280;70664;51.472;5.712;2023-07-22T00:23:23;101225.84;;;21.65;49.77
42105;BME280;70664;51.472;5.712;2023-07-22T00:25:50;101226.75;;;21.64;49.45
42105;BME280;70664;51.472;5.712;2023-07-22T00:28:16;101225.97;;;21.62;49.40
42105;BME280;70664;51.472;5.712;2023-07-22T00:30:42;101215.53;;;21.60;49.46
42105;BME280;70664;51.472;5.712;2023-07-22T00:33:08;101218.97;;;21.62;49.55
42105;BME280;70664;51.472;5.712;2023-07-22T00:35:35;101220.72;;;21.62;49.85
42105;BME280;70664;51.472;5.712;2023-07-22T00:38:01;101213.75;;;21.61;49.52
42105;BME280;70664;51.472;5.712;2023-07-22T00:40:28;101208.53;;;21.62;49.90
42105;BME280;70664;51.472;5.712;2023-07-22T00:42:56;101217.31;;;21.60;49.71
42105;BME280;70664;51.472;5.712;2023-07-22T00:45:22;101217.31;;;21.60;49.91
42105;BME280;70664;51.472;5.712;2023-07-22T00:47:48;101212.09;;;21.60;49.92
42105;BME280;70664;51.472;5.712;2023-07-22T00:50:14;101212.13;;;21.58;49.83
42105;BME280;70664;51.472;5.712;2023-07-22T00:52:40;101208.59;;;21.59;49.82
42105;BME280;70664;51.472;5.712;2023-07-22T00:55:07;101207.75;;;21.59;49.43
42105;BME280;70664;51.472;5.712;2023-07-22T00:57:34;101210.38;;;21.59;49.88
42105;BME280;70664;51.472;5.712;2023-07-22T01:00:00;101210.38;;;21.59;50.14
42105;BME280;70664;51.472;5.712;2023-07-22T01:02:26;101211.22;;;21.59;49.76
42105;BME280;70664;51.472;5.712;2023-07-22T01:04:52;101206.06;;;21.58;50.22
42105;BME280;70664;51.472;5.712;2023-07-22T01:07:18;101205.97;;;21.59;50.20
42105;BME280;70664;51.472;5.712;2023-07-22T01:09:44;101214.75;;;21.58;50.37
42105;BME280;70664;51.472;5.712;2023-07-22T01:12:11;101210.50;;;21.55;49.90
42105;BME280;70664;51.472;5.712;2023-07-22T01:14:40;101206.97;;;21.57;50.00
42105;BME280;70664;51.472;5.712;2023-07-22T01:17:08;101207.00;;;21.55;50.10
42105;BME280;70664;51.472;5.712;2023-07-22T01:19:35;101211.41;;;21.54;49.82
42105;BME280;70664;51.472;5.712;2023-07-22T01:22:04;101204.47;;;21.53;49.71
42105;BME280;70664;51.472;5.712;2023-07-22T01:24:31;101205.28;;;21.54;49.96
42105;BME280;70664;51.472;5.712;2023-07-22T01:26:57;101196.59;;;21.53;50.15
42105;BME280;70664;51.472;5.712;2023-07-22T01:29:24;101198.34;;;21.53;50.15
42105;BME280;70664;51.472;5.712;2023-07-22T01:31:52;101192.41;;;21.49;49.57
42105;BME280;70664;51.472;5.712;2023-07-22T01:34:19;101191.50;;;21.50;49.90
42105;BME280;70664;51.472;5.712;2023-07-22T01:36:46;101192.31;;;21.51;49.79
42105;BME280;70664;51.472;5.712;2023-07-22T01:39:16;101188.00;;;21.50;49.62
42105;BME280;70664;51.472;5.712;2023-07-22T01:41:43;101186.28;;;21.49;49.83
42105;BME280;70664;51.472;5.712;2023-07-22T01:44:09;101184.47;;;21.51;50.23
42105;BME280;70664;51.472;5.712;2023-07-22T01:46:35;101183.56;;;21.52;49.97
42105;BME280;70664;51.472;5.712;2023-07-22T01:49:04;101180.13;;;21.51;50.07
42105;BME280;70664;51.472;5.712;2023-07-22T01:51:30;101187.06;;;21.52;50.18
42105;BME280;70664;51.472;5.712;2023-07-22T01:53:57;101174.91;;;21.50;50.08
42105;BME280;70664;51.472;5.712;2023-07-22T01:56:23;101186.28;;;21.49;49.99
42105;BME280;70664;51.472;5.712;2023-07-22T01:58:50;101184.66;;;21.46;50.01
42105;BME280;70664;51.472;5.712;2023-07-22T02:01:16;101186.44;;;21.46;49.71
42105;BME280;70664;51.472;5.712;2023-07-22T02:03:42;101187.28;;;21.46;49.95
42105;BME280;70664;51.472;5.712;2023-07-22T02:06:08;101182.03;;;21.46;50.02
42105;BME280;70664;51.472;5.712;2023-07-22T02:08:34;101179.50;;;21.45;49.89
42105;BME280;70664;51.472;5.712;2023-07-22T02:11:07;101183.03;;;21.44;50.14
42105;BME280;70664;51.472;5.712;2023-07-22T02:13:35;101189.06;;;21.46;50.14
42105;BME280;70664;51.472;5.712;2023-07-22T02:16:02;101181.19;;;21.46;49.68
42105;BME280;70664;51.472;5.712;2023-07-22T02:18:28;101179.53;;;21.43;49.76
42105;BME280;70664;51.472;5.712;2023-07-22T02:20:55;101176.09;;;21.43;49.95
42105;BME280;70664;51.472;5.712;2023-07-22T02:23:21;101181.34;;;21.41;50.01
42105;BME280;70664;51.472;5.712;2023-07-22T02:25:52;101176.00;;;21.44;49.84
42105;BME280;70664;51.472;5.712;2023-07-22T02:28:19;101175.16;;;21.44;50.14
42105;BME280;70664;51.472;5.712;2023-07-22T02:30:48;101176.91;;;21.43;49.84
42105;BME280;70664;51.472;5.712;2023-07-22T02:33:14;101169.06;;;21.43;49.89
42105;BME280;70664;51.472;5.712;2023-07-22T02:35:41;101171.75;;;21.42;50.05
42105;BME280;70664;51.472;5.712;2023-07-22T02:38:08;101167.38;;;21.42;50.18
42105;BME280;70664;51.472;5.712;2023-07-22T02:40:37;101174.31;;;21.43;49.86
42105;BME280;70664;51.472;5.712;2023-07-22T02:43:03;101167.38;;;21.42;49.99
42105;BME280;70664;51.472;5.712;2023-07-22T02:45:29;101164.75;;;21.42;49.88
42105;BME280;70664;51.472;5.712;2023-07-22T02:47:55;101166.47;;;21.43;50.38
42105;BME280;70664;51.472;5.712;2023-07-22T02:50:21;101167.44;;;21.40;50.07
42105;BME280;70664;51.472;5.712;2023-07-22T02:52:47;101162.22;;;21.40;50.03
42105;BME280;70664;51.472;5.712;2023-07-22T02:55:17;101165.66;;;21.41;50.09
42105;BME280;70664;51.472;5.712;2023-07-22T02:57:47;101170.06;;;21.40;50.03
42105;BME280;70664;51.472;5.712;2023-07-22T03:00:18;101168.34;;;21.39;50.01
42105;BME280;70664;51.472;5.712;2023-07-22T03:02:56;101163.13;;;21.39;50.07
42105;BME280;70664;51.472;5.712;2023-07-22T03:05:29;101158.72;;;21.40;50.11
42105;BME280;70664;51.472;5.712;2023-07-22T03:07:57;101163.16;;;21.38;50.42
42105;BME280;70664;51.472;5.712;2023-07-22T03:10:23;101171.00;;;21.38;50.07
42105;BME280;70664;51.472;5.712;2023-07-22T03:12:51;101167.59;;;21.36;50.10
42105;BME280;70664;51.472;5.712;2023-07-22T03:15:21;101169.25;;;21.38;50.09
42105;BME280;70664;51.472;5.712;2023-07-22T03:17:47;101163.16;;;21.38;50.00
42105;BME280;70664;51.472;5.712;2023-07-22T03:20:14;101172.72;;;21.39;50.69
42105;BME280;70664;51.472;5.712;2023-07-22T03:22:40;101168.38;;;21.38;50.32
42105;BME280;70664;51.472;5.712;2023-07-22T03:25:09;101170.16;;;21.37;50.21
42105;BME280;70664;51.472;5.712;2023-07-22T03:27:36;101178.03;;;21.36;50.49
42105;BME280;70664;51.472;5.712;2023-07-22T03:30:06;101178.91;;;21.36;50.60
42105;BME280;70664;51.472;5.712;2023-07-22T03:32:36;101183.34;;;21.34;50.60
42105;BME280;70664;51.472;5.712;2023-07-22T03:35:02;101185.97;;;21.34;50.52
42105;BME280;70664;51.472;5.712;2023-07-22T03:37:29;101190.28;;;21.35;50.60
42105;BME280;70664;51.472;5.712;2023-07-22T03:39:55;101178.03;;;21.36;50.22
42105;BME280;70664;51.472;5.712;2023-07-22T03:42:21;101187.72;;;21.34;50.41
42105;BME280;70664;51.472;5.712;2023-07-22T03:44:47;101190.31;;;21.34;50.50
42105;BME280;70664;51.472;5.712;2023-07-22T03:47:12;101187.78;;;21.32;50.67
42105;BME280;70664;51.472;5.712;2023-07-22T03:49:38;101182.56;;;21.32;50.63
42105;BME280;70664;51.472;5.712;2023-07-22T03:52:05;101186.88;;;21.33;50.57
42105;BME280;70664;51.472;5.712;2023-07-22T03:54:31;101186.97;;;21.30;50.59
42105;BME280;70664;51.472;5.712;2023-07-22T03:56:56;101184.31;;;21.32;50.67
42105;BME280;70664;51.472;5.712;2023-07-22T03:59:22;101185.22;;;21.31;50.35
42105;BME280;70664;51.472;5.712;2023-07-22T04:01:48;101189.59;;;21.30;50.38
42105;BME280;70664;51.472;5.712;2023-07-22T04:04:14;101184.38;;;21.30;50.49
42105;BME280;70664;51.472;5.712;2023-07-22T04:06:39;101189.56;;;21.32;50.64
42105;BME280;70664;51.472;5.712;2023-07-22T04:09:05;101180.09;;;21.28;50.61
42105;BME280;70664;51.472;5.712;2023-07-22T04:11:31;101186.19;;;21.28;50.78
42105;BME280;70664;51.472;5.712;2023-07-22T04:13:57;101184.56;;;21.24;50.63
42105;BME280;70664;51.472;5.712;2023-07-22T04:16:23;101184.56;;;21.24;50.83
42105;BME280;70664;51.472;5.712;2023-07-22T04:18:51;101177.53;;;21.26;50.55
42105;BME280;70664;51.472;5.712;2023-07-22T04:21:17;101183.75;;;21.23;50.80
42105;BME280;70664;51.472;5.712;2023-07-22T04:23:43;101185.47;;;21.23;50.60
42105;BME280;70664;51.472;5.712;2023-07-22T04:26:09;101178.63;;;21.20;50.41
42105;BME280;70664;51.472;5.712;2023-07-22T04:28:35;101184.56;;;21.24;50.55
42105;BME280;70664;51.472;5.712;2023-07-22T04:31:01;101188.91;;;21.25;50.48
42105;BME280;70664;51.472;5.712;2023-07-22T04:33:27;101202.88;;;21.24;50.56
42105;BME280;70664;51.472;5.712;2023-07-22T04:35:59;101188.00;;;21.26;50.43
42105;BME280;70664;51.472;5.712;2023-07-22T04:38:25;101189.88;;;21.22;50.88
42105;BME280;70664;51.472;5.712;2023-07-22T04:40:51;101189.88;;;21.22;50.80
42105;BME280;70664;51.472;5.712;2023-07-22T04:43:17;101196.00;;;21.21;50.56
42105;BME280;70664;51.472;5.712;2023-07-22T04:45:45;101193.50;;;21.18;50.67
42105;BME280;70664;51.472;5.712;2023-07-22T04:48:19;101190.78;;;21.21;50.48
42105;BME280;70664;51.472;5.712;2023-07-22T04:50:45;101197.00;;;21.19;50.85
42105;BME280;70664;51.472;5.712;2023-07-22T04:53:12;101198.63;;;21.21;50.61
42105;BME280;70664;51.472;5.712;2023-07-22T04:55:41;101195.16;;;21.21;51.00
42105;BME280;70664;51.472;5.712;2023-07-22T04:58:07;101200.28;;;21.24;50.70
42105;BME280;70664;51.472;5.712;2023-07-22T05:00:37;101195.03;;;21.24;50.57
42105;BME280;70664;51.472;5.712;2023-07-22T05:03:04;101198.44;;;21.26;50.59
42105;BME280;70664;51.472;5.712;2023-07-22T05:05:29;101201.94;;;21.27;50.68
42105;BME280;70664;51.472;5.712;2023-07-22T05:07:55;101196.72;;;21.27;50.67
42105;BME280;70664;51.472;5.712;2023-07-22T05:10:22;101198.31;;;21.31;50.78
42105;BME280;70664;51.472;5.712;2023-07-22T05:12:48;101197.41;;;21.32;50.67
42105;BME280;70664;51.472;5.712;2023-07-22T05:15:14;101192.09;;;21.33;50.75
42105;BME280;70664;51.472;5.712;2023-07-22T05:17:40;101194.03;;;21.28;50.54
42105;BME280;70664;51.472;5.712;2023-07-22T05:20:07;101193.19;;;21.28;51.11
42105;BME280;70664;51.472;5.712;2023-07-22T05:22:37;101204.38;;;21.31;50.67
42105;BME280;70664;51.472;5.712;2023-07-22T05:25:04;101200.06;;;21.30;50.89
42105;BME280;70664;51.472;5.712;2023-07-22T05:27:30;101205.38;;;21.27;50.65
42105;BME280;70664;51.472;5.712;2023-07-22T05:29:56;101201.88;;;21.28;50.91
42105;BME280;70664;51.472;5.712;2023-07-22T05:32:22;101206.31;;;21.26;50.67
42105;BME280;70664;51.472;5.712;2023-07-22T05:34:48;101210.72;;;21.24;50.57
42105;BME280;70664;51.472;5.712;2023-07-22T05:37:13;101213.34;;;21.24;50.69
42105;BME280;70664;51.472;5.712;2023-07-22T05:39:39;101214.22;;;21.24;50.66
42105;BME280;70664;51.472;5.712;2023-07-22T05:42:06;101211.53;;;21.26;50.86
42105;BME280;70664;51.472;5.712;2023-07-22T05:44:32;101204.56;;;21.27;50.90
42105;BME280;70664;51.472;5.712;2023-07-22T05:46:58;101201.03;;;21.28;50.92
42105;BME280;70664;51.472;5.712;2023-07-22T05:49:24;101201.88;;;21.28;51.00
42105;BME280;70664;51.472;5.712;2023-07-22T05:51:50;101200.13;;;21.29;50.67
42105;BME280;70664;51.472;5.712;2023-07-22T05:54:15;101199.31;;;21.27;50.51
42105;BME280;70664;51.472;5.712;2023-07-22T05:56:41;101192.38;;;21.25;50.87
42105;BME280;70664;51.472;5.712;2023-07-22T05:59:07;101201.88;;;21.28;51.05
42105;BME280;70664;51.472;5.712;2023-07-22T06:01:33;101197.50;;;21.29;51.04
42105;BME280;70664;51.472;5.712;2023-07-22T06:04:00;101196.59;;;21.30;50.95
42105;BME280;70664;51.472;5.712;2023-07-22T06:06:27;101192.38;;;21.25;51.06
42105;BME280;70664;51.472;5.712;2023-07-22T06:08:53;101188.78;;;21.28;50.89
42105;BME280;70664;51.472;5.712;2023-07-22T06:11:18;101188.78;;;21.28;50.99
42105;BME280;70664;51.472;5.712;2023-07-22T06:13:44;101187.88;;;21.29;51.09
42105;BME280;70664;51.472;5.712;2023-07-22T06:16:10;101185.22;;;21.31;51.46
42105;BME280;70664;51.472;5.712;2023-07-22T06:18:36;101186.97;;;21.30;51.23
42105;BME280;70664;51.472;5.712;2023-07-22T06:21:02;101187.88;;;21.29;51.12
42105;BME280;70664;51.472;5.712;2023-07-22T06:23:28;101187.97;;;21.28;51.29
42105;BME280;70664;51.472;5.712;2023-07-22T06:25:54;101190.50;;;21.29;50.90
42105;BME280;70664;51.472;5.712;2023-07-22T06:28:19;101190.47;;;21.31;51.03
42105;BME280;70664;51.472;5.712;2023-07-22T06:30:45;101191.22;;;21.33;51.22
42105;BME280;70664;51.472;5.712;2023-07-22T06:33:11;101194.66;;;21.35;50.99
42105;BME280;70664;51.472;5.712;2023-07-22T06:35:37;101191.13;;;21.36;51.01
42105;BME280;70664;51.472;5.712;2023-07-22T06:38:02;101190.28;;;21.35;51.17
42105;BME280;70664;51.472;5.712;2023-07-22T06:40:28;101191.19;;;21.34;51.06
42105;BME280;70664;51.472;5.712;2023-07-22T06:42:54;101189.41;;;21.35;51.01
42105;BME280;70664;51.472;5.712;2023-07-22T06:45:20;101187.66;;;21.35;51.12
42105;BME280;70664;51.472;5.712;2023-07-22T06:47:46;101184.25;;;21.33;51.45
42105;BME280;70664;51.472;5.712;2023-07-22T06:50:12;101187.72;;;21.34;51.31
42105;BME280;70664;51.472;5.712;2023-07-22T06:52:38;101182.56;;;21.32;51.33
42105;BME280;70664;51.472;5.712;2023-07-22T06:55:05;101184.25;;;21.33;51.26
42105;BME280;70664;51.472;5.712;2023-07-22T06:57:31;101189.50;;;21.33;51.22
42105;BME280;70664;51.472;5.712;2023-07-22T06:59:57;101184.19;;;21.35;51.47
42105;BME280;70664;51.472;5.712;2023-07-22T07:02:23;101185.06;;;21.35;51.59
42105;BME280;70664;51.472;5.712;2023-07-22T07:04:49;101178.94;;;21.35;51.65
42105;BME280;70664;51.472;5.712;2023-07-22T07:07:15;101172.00;;;21.34;52.07
42105;BME280;70664;51.472;5.712;2023-07-22T07:09:42;101169.41;;;21.34;51.93
42105;BME280;70664;51.472;5.712;2023-07-22T07:12:08;101170.19;;;21.36;51.46
42105;BME280;70664;51.472;5.712;2023-07-22T07:14:34;101168.44;;;21.36;52.22
42105;BME280;70664;51.472;5.712;2023-07-22T07:17:01;101164.97;;;21.36;52.21
42105;BME280;70664;51.472;5.712;2023-07-22T07:19:27;101161.44;;;21.37;52.08
42105;BME280;70664;51.472;5.712;2023-07-22T07:21:53;101160.59;;;21.36;52.19
42105;BME280;70664;51.472;5.712;2023-07-22T07:24:19;101162.34;;;21.36;52.83
42105;BME280;70664;51.472;5.712;2023-07-22T07:26:45;101162.25;;;21.39;51.80
42105;BME280;70664;51.472;5.712;2023-07-22T07:29:11;101164.03;;;21.38;52.40
42105;BME280;70664;51.472;5.712;2023-07-22T07:31:38;101160.53;;;21.38;52.67
42105;BME280;70664;51.472;5.712;2023-07-22T07:34:04;101158.84;;;21.37;52.50
42105;BME280;70664;51.472;5.712;2023-07-22T07:36:31;101162.31;;;21.37;52.30
42105;BME280;70664;51.472;5.712;2023-07-22T07:38:56;101158.78;;;21.38;52.31
42105;BME280;70664;51.472;5.712;2023-07-22T07:41:22;101166.63;;;21.38;52.89
42105;BME280;70664;51.472;5.712;2023-07-22T07:43:48;101167.69;;;21.33;53.78
42105;BME280;70664;51.472;5.712;2023-07-22T07:46:28;101167.19;;;21.23;53.98
42105;BME280;70664;51.472;5.712;2023-07-22T07:48:57;101166.25;;;21.25;54.41
42105;BME280;70664;51.472;5.712;2023-07-22T07:51:24;101176.22;;;21.14;54.70
42105;BME280;70664;51.472;5.712;2023-07-22T07:53:52;101174.56;;;21.12;54.75
42105;BME280;70664;51.472;5.712;2023-07-22T07:56:19;101174.69;;;21.08;55.24
42105;BME280;70664;51.472;5.712;2023-07-22T07:58:49;101178.31;;;21.04;55.65
42105;BME280;70664;51.472;5.712;2023-07-22T08:01:16;101177.41;;;21.05;55.68
42105;BME280;70664;51.472;5.712;2023-07-22T08:03:42;101177.34;;;21.07;55.96
42105;BME280;70664;51.472;5.712;2023-07-22T08:06:09;101177.34;;;21.07;55.40
42105;BME280;70664;51.472;5.712;2023-07-22T08:08:36;101180.94;;;21.04;55.88
42105;BME280;70664;51.472;5.712;2023-07-22T08:11:15;101186.09;;;21.06;56.09
42105;BME280;70664;51.472;5.712;2023-07-22T08:13:43;101183.38;;;21.09;55.91
42105;BME280;70664;51.472;5.712;2023-07-22T08:16:12;101182.47;;;21.10;55.74
42105;BME280;70664;51.472;5.712;2023-07-22T08:18:38;101181.56;;;21.11;55.81
42105;BME280;70664;51.472;5.712;2023-07-22T08:21:06;101180.75;;;21.09;55.80
42105;BME280;70664;51.472;5.712;2023-07-22T08:23:36;101185.06;;;21.10;56.43
42105;BME280;70664;51.472;5.712;2023-07-22T08:26:03;101181.56;;;21.11;56.25
42105;BME280;70664;51.472;5.712;2023-07-22T08:28:32;101185.94;;;21.10;56.21
42105;BME280;70664;51.472;5.712;2023-07-22T08:30:58;101189.50;;;21.08;55.90
42105;BME280;70664;51.472;5.712;2023-07-22T08:33:26;101186.84;;;21.09;55.86
42105;BME280;70664;51.472;5.712;2023-07-22T08:35:52;101184.22;;;21.09;56.32
42105;BME280;70664;51.472;5.712;2023-07-22T08:38:18;101187.66;;;21.12;56.36
42105;BME280;70664;51.472;5.712;2023-07-22T08:40:48;101184.97;;;21.13;56.05
42105;BME280;70664;51.472;5.712;2023-07-22T08:43:14;101185.94;;;21.10;56.21
42105;BME280;70664;51.472;5.712;2023-07-22T08:45:43;101186.75;;;21.13;56.33
42105;BME280;70664;51.472;5.712;2023-07-22T08:48:15;101177.94;;;21.15;55.98
42105;BME280;70664;51.472;5.712;2023-07-22T08:51:15;101181.41;;;21.16;55.35
42105;BME280;70664;51.472;5.712;2023-07-22T08:53:43;101172.75;;;21.14;55.75
42105;BME280;70664;51.472;5.712;2023-07-22T08:56:26;101176.91;;;21.19;55.71
42105;BME280;70664;51.472;5.712;2023-07-22T08:58:55;101180.31;;;21.21;55.83
42105;BME280;70664;51.472;5.712;2023-07-22T09:01:25;101172.47;;;21.21;55.89
42105;BME280;70664;51.472;5.712;2023-07-22T09:04:01;101178.56;;;21.22;56.34
42105;BME280;70664;51.472;5.712;2023-07-22T09:06:31;101176.81;;;21.22;56.48
42105;BME280;70664;51.472;5.712;2023-07-22T09:08:57;101173.31;;;21.22;56.20
42105;BME280;70664;51.472;5.712;2023-07-22T09:11:25;101180.25;;;21.23;55.95
42105;BME280;70664;51.472;5.712;2023-07-22T09:13:52;101181.06;;;21.25;55.85
42105;BME280;70664;51.472;5.712;2023-07-22T09:16:22;101179.34;;;21.24;55.80
42105;BME280;70664;51.472;5.712;2023-07-22T09:18:50;101186.25;;;21.27;55.51
42105;BME280;70664;51.472;5.712;2023-07-22T09:21:21;101187.09;;;21.27;55.33
42105;BME280;70664;51.472;5.712;2023-07-22T09:23:54;101181.84;;;21.27;55.17
42105;BME280;70664;51.472;5.712;2023-07-22T09:26:20;101174.91;;;21.26;54.55
42105;BME280;70664;51.472;5.712;2023-07-22T09:28:54;101181.81;;;21.29;55.18
42105;BME280;70664;51.472;5.712;2023-07-22T09:31:22;101186.13;;;21.30;55.26
42105;BME280;70664;51.472;5.712;2023-07-22T09:33:49;101180.84;;;21.31;55.42
42105;BME280;70664;51.472;5.712;2023-07-22T09:36:28;101178.28;;;21.30;55.12
42105;BME280;70664;51.472;5.712;2023-07-22T09:39:16;101176.47;;;21.32;55.21
42105;BME280;70664;51.472;5.712;2023-07-22T09:41:42;101166.06;;;21.30;54.98
42105;BME280;70664;51.472;5.712;2023-07-22T09:44:17;101171.25;;;21.32;54.95
42105;BME280;70664;51.472;5.712;2023-07-22T09:46:50;101170.38;;;21.31;55.14
42105;BME280;70664;51.472;5.712;2023-07-22T09:49:17;101166.84;;;21.32;55.30
42105;BME280;70664;51.472;5.712;2023-07-22T09:51:46;101162.47;;;21.33;55.36
42105;BME280;70664;51.472;5.712;2023-07-22T09:54:12;101156.41;;;21.32;54.66
42105;BME280;70664;51.472;5.712;2023-07-22T09:56:49;101152.94;;;21.32;54.93
42105;BME280;70664;51.472;5.712;2023-07-22T09:59:18;101167.69;;;21.33;55.12
42105;BME280;70664;51.472;5.712;2023-07-22T10:01:46;101168.56;;;21.33;55.42
42105;BME280;70664;51.472;5.712;2023-07-22T10:04:16;101173.78;;;21.33;54.44
42105;BME280;70664;51.472;5.712;2023-07-22T10:06:43;101159.91;;;21.31;54.28
42105;BME280;70664;51.472;5.712;2023-07-22T10:09:11;101162.53;;;21.31;54.48
42105;BME280;70664;51.472;5.712;2023-07-22T10:11:39;101166.94;;;21.31;54.98
42105;BME280;70664;51.472;5.712;2023-07-22T10:14:05;101165.16;;;21.31;54.28
42105;BME280;70664;51.472;5.712;2023-07-22T10:16:31;101165.16;;;21.31;54.51
42105;BME280;70664;51.472;5.712;2023-07-22T10:19:02;101166.03;;;21.32;54.64
42105;BME280;70664;51.472;5.712;2023-07-22T10:21:30;101160.78;;;21.32;54.25
42105;BME280;70664;51.472;5.712;2023-07-22T10:23:57;101165.06;;;21.33;54.86
42105;BME280;70664;51.472;5.712;2023-07-22T10:26:26;101162.47;;;21.33;54.54
42105;BME280;70664;51.472;5.712;2023-07-22T10:28:52;101163.41;;;21.32;53.77
42105;BME280;70664;51.472;5.712;2023-07-22T10:31:18;101153.84;;;21.31;53.68
42105;BME280;70664;51.472;5.712;2023-07-22T10:33:46;101154.75;;;21.30;53.30
42105;BME280;70664;51.472;5.712;2023-07-22T10:36:16;101159.09;;;21.31;53.33
42105;BME280;70664;51.472;5.712;2023-07-22T10:38:55;101163.50;;;21.29;53.47
42105;BME280;70664;51.472;5.712;2023-07-22T10:41:21;101160.00;;;21.30;53.58
42105;BME280;70664;51.472;5.712;2023-07-22T10:43:58;101160.03;;;21.28;53.28
42105;BME280;70664;51.472;5.712;2023-07-22T10:46:38;101159.91;;;21.31;53.82
42105;BME280;70664;51.472;5.712;2023-07-22T10:49:12;101159.91;;;21.31;53.86
42105;BME280;70664;51.472;5.712;2023-07-22T10:51:47;101168.63;;;21.32;54.08
42105;BME280;70664;51.472;5.712;2023-07-22T10:54:37;101153.78;;;21.32;53.72
42105;BME280;70664;51.472;5.712;2023-07-22T10:57:26;101152.00;;;21.33;53.78
42105;BME280;70664;51.472;5.712;2023-07-22T10:59:57;101155.56;;;21.32;53.78
42105;BME280;70664;51.472;5.712;2023-07-22T11:02:32;101152.88;;;21.33;53.98
42105;BME280;70664;51.472;5.712;2023-07-22T11:04:58;101151.16;;;21.32;54.12
42105;BME280;70664;51.472;5.712;2023-07-22T11:07:33;101149.38;;;21.33;54.02
42105;BME280;70664;51.472;5.712;2023-07-22T11:10:18;101152.00;;;21.33;53.74
42105;BME280;70664;51.472;5.712;2023-07-22T11:12:45;101140.69;;;21.32;53.94
42105;BME280;70664;51.472;5.712;2023-07-22T11:15:11;101149.34;;;21.34;53.88
42105;BME280;70664;51.472;5.712;2023-07-22T11:17:40;101145.88;;;21.34;53.84
42105;BME280;70664;51.472;5.712;2023-07-22T11:20:06;101139.78;;;21.33;53.63
42105;BME280;70664;51.472;5.712;2023-07-22T11:22:32;101158.94;;;21.34;53.29
42105;BME280;70664;51.472;5.712;2023-07-22T11:25:01;101151.97;;;21.34;52.60
42105;BME280;70664;51.472;5.712;2023-07-22T11:27:29;101135.47;;;21.32;52.77
42105;BME280;70664;51.472;5.712;2023-07-22T11:29:58;101132.78;;;21.34;52.39
42105;BME280;70664;51.472;5.712;2023-07-22T11:32:24;101131.03;;;21.34;51.65
42105;BME280;70664;51.472;5.712;2023-07-22T11:34:56;101127.56;;;21.34;51.55
42105;BME280;70664;51.472;5.712;2023-07-22T11:37:22;101133.66;;;21.34;51.81
42105;BME280;70664;51.472;5.712;2023-07-22T11:39:48;101131.84;;;21.36;51.10
42105;BME280;70664;51.472;5.712;2023-07-22T11:42:14;101125.81;;;21.34;51.81
42105;BME280;70664;51.472;5.712;2023-07-22T11:44:41;101128.44;;;21.34;51.24
42105;BME280;70664;51.472;5.712;2023-07-22T11:47:08;101123.19;;;21.34;51.55
42105;BME280;70664;51.472;5.712;2023-07-22T11:49:40;101110.94;;;21.35;51.78
42105;BME280;70664;51.472;5.712;2023-07-22T11:52:09;101112.72;;;21.34;51.64
42105;BME280;70664;51.472;5.712;2023-07-22T11:54:41;101116.25;;;21.33;51.00
42105;BME280;70664;51.472;5.712;2023-07-22T11:57:19;101110.13;;;21.34;51.14
42105;BME280;70664;51.472;5.712;2023-07-22T11:59:51;101111.88;;;21.34;51.34
42105;BME280;70664;51.472;5.712;2023-07-22T12:02:21;101108.34;;;21.35;51.02
42105;BME280;70664;51.472;5.712;2023-07-22T12:05:21;101109.25;;;21.34;51.08
42105;BME280;70664;51.472;5.712;2023-07-22T12:07:47;101108.31;;;21.36;51.51
42105;BME280;70664;51.472;5.712;2023-07-22T12:10:15;101103.09;;;21.35;51.57
42105;BME280;70664;51.472;5.712;2023-07-22T12:13:00;101111.81;;;21.35;51.38
42105;BME280;70664;51.472;5.712;2023-07-22T12:15:29;101100.50;;;21.35;51.54
42105;BME280;70664;51.472;5.712;2023-07-22T12:18:04;101105.72;;;21.35;51.19
42105;BME280;70664;51.472;5.712;2023-07-22T12:20:45;101101.28;;;21.37;50.74
42105;BME280;70664;51.472;5.712;2023-07-22T12:23:14;101097.84;;;21.36;51.34
42105;BME280;70664;51.472;5.712;2023-07-22T12:25:43;101095.16;;;21.38;51.74
42105;BME280;70664;51.472;5.712;2023-07-22T12:28:09;101085.56;;;21.38;51.90
42105;BME280;70664;51.472;5.712;2023-07-22T12:30:41;101084.69;;;21.38;51.63
42105;BME280;70664;51.472;5.712;2023-07-22T12:33:07;101087.31;;;21.38;51.61
42105;BME280;70664;51.472;5.712;2023-07-22T12:35:32;101093.44;;;21.37;51.34
42105;BME280;70664;51.472;5.712;2023-07-22T12:37:59;101084.75;;;21.36;50.59
42105;BME280;70664;51.472;5.712;2023-07-22T12:40:25;101087.38;;;21.36;50.16
42105;BME280;70664;51.472;5.712;2023-07-22T12:43:23;101084.75;;;21.36;50.45
42105;BME280;70664;51.472;5.712;2023-07-22T12:45:59;101082.97;;;21.37;49.94
42105;BME280;70664;51.472;5.712;2023-07-22T12:48:25;101075.13;;;21.37;49.55
42105;BME280;70664;51.472;5.712;2023-07-22T12:50:51;101077.75;;;21.37;49.48
42105;BME280;70664;51.472;5.712;2023-07-22T12:53:17;101076.00;;;21.37;50.15
42105;BME280;70664;51.472;5.712;2023-07-22T12:55:43;101075.09;;;21.38;49.87